Time;durP1;ratioP1;P1;durP2;ratioP2;P2;SDS_P1;SDS_P2;PMS_P1;PMS_P2;Temp;Humidity;BMP_temperature;BMP_pressure;BME280_temperature;BME280_humidity;BME280_pressure;Samples;Min_cycle;Max_cycle;Signal;HPM_P1;HPM_P2
2021/12/01 00:00:22;;;;;;;22.15;14.43;;;6.90;63.50;;;;;;5032919;28;20188;-81
2021/12/01 00:02:53;;;;;;;20.75;14.13;;;6.90;63.60;;;;;;5014548;28;20382;-81
2021/12/01 00:05:23;;;;;;;19.83;13.63;;;6.90;63.50;;;;;;5033178;28;20026;-81
2021/12/01 00:07:49;;;;;;;21.52;13.38;;;6.90;63.30;;;;;;5027021;28;20034;-81
2021/12/01 00:10:17;;;;;;;19.27;12.93;;;6.90;63.30;;;;;;5030756;28;20374;-81
2021/12/01 00:12:44;;;;;;;20.98;15.00;;;7.00;63.30;;;;;;5032265;28;20155;-81
2021/12/01 00:15:10;;;;;;;19.08;13.23;;;6.90;63.10;;;;;;5033013;28;20034;-81
2021/12/01 00:17:36;;;;;;;23.67;14.40;;;6.90;63.20;;;;;;5035085;28;20045;-80
2021/12/01 00:20:14;;;;;;;22.35;13.93;;;6.90;63.40;;;;;;5032867;28;20041;-80
2021/12/01 00:22:40;;;;;;;17.83;13.52;;;6.90;63.90;;;;;;5032831;28;20560;-80
2021/12/01 00:25:08;;;;;;;18.52;12.77;;;7.00;64.00;;;;;;5033190;28;20026;-80
2021/12/01 00:27:34;;;;;;;18.50;12.73;;;7.00;63.50;;;;;;5041598;28;20493;-80
2021/12/01 00:30:00;;;;;;;19.67;13.63;;;7.00;63.30;;;;;;5043274;28;20071;-80
2021/12/01 00:32:26;;;;;;;19.38;12.68;;;7.00;63.20;;;;;;5021003;28;20040;-82
2021/12/01 00:34:52;;;;;;;20.33;13.07;;;7.00;63.10;;;;;;5018668;28;20045;-81
2021/12/01 00:37:18;;;;;;;16.35;11.52;;;6.90;63.30;;;;;;5023565;28;20044;-82
2021/12/01 00:39:44;;;;;;;18.98;12.27;;;6.90;63.30;;;;;;5014372;28;20124;-81
2021/12/01 00:42:11;;;;;;;18.60;12.23;;;6.80;63.20;;;;;;5038980;28;20140;-81
2021/12/01 00:44:45;;;;;;;18.27;12.20;;;6.80;63.40;;;;;;5034075;28;20030;-80
2021/12/01 00:47:12;;;;;;;16.65;12.05;;;6.70;63.30;;;;;;5044276;28;20097;-80
2021/12/01 00:49:38;;;;;;;19.55;11.45;;;6.70;63.40;;;;;;5040252;28;20044;-80
2021/12/01 00:52:04;;;;;;;14.98;10.90;;;6.70;63.60;;;;;;5033893;28;20084;-80
2021/12/01 00:54:30;;;;;;;17.48;11.68;;;6.60;63.80;;;;;;5016595;28;20037;-80
2021/12/01 00:56:56;;;;;;;15.80;11.63;;;6.60;64.00;;;;;;5032906;28;20068;-80
2021/12/01 00:59:22;;;;;;;18.98;12.25;;;6.60;64.10;;;;;;5025198;28;20351;-80
2021/12/01 01:01:48;;;;;;;19.30;13.13;;;6.60;64.20;;;;;;5040814;28;20102;-80
2021/12/01 01:04:14;;;;;;;19.25;11.95;;;6.60;64.20;;;;;;5036576;28;20041;-80
2021/12/01 01:06:41;;;;;;;19.75;12.63;;;6.70;64.40;;;;;;5036350;28;20041;-80
2021/12/01 01:09:07;;;;;;;19.13;12.43;;;6.70;64.90;;;;;;5032539;28;20033;-80
2021/12/01 01:17:09;;;;;;;20.60;12.38;;;6.90;64.30;;;;;;5020654;28;20431;-79
2021/12/01 01:19:37;;;;;;;17.63;12.48;;;6.90;64.20;;;;;;5012368;28;20101;-79
2021/12/01 01:22:05;;;;;;;17.88;11.80;;;6.90;64.30;;;;;;5012988;28;20062;-79
2021/12/01 01:24:31;;;;;;;20.00;12.43;;;6.90;64.60;;;;;;4994589;28;20042;-79
2021/12/01 01:26:57;;;;;;;22.13;13.30;;;7.00;64.30;;;;;;5012752;28;20100;-79
2021/12/01 01:29:24;;;;;;;18.13;12.70;;;7.00;63.80;;;;;;4994690;28;20041;-79
2021/12/01 01:31:55;;;;;;;17.15;12.10;;;7.00;63.50;;;;;;4995387;28;20064;-79
2021/12/01 01:34:22;;;;;;;17.27;12.05;;;6.90;63.60;;;;;;5011864;28;20077;-79
2021/12/01 01:36:48;;;;;;;18.70;12.50;;;6.90;63.80;;;;;;5007375;28;20088;-79
2021/12/01 01:39:14;;;;;;;19.08;11.70;;;6.90;63.70;;;;;;4992042;28;20045;-79
2021/12/01 01:41:40;;;;;;;16.70;11.82;;;6.90;63.60;;;;;;5016090;28;20065;-79
2021/12/01 01:44:06;;;;;;;16.83;12.07;;;6.90;63.50;;;;;;5016959;28;20461;-80
2021/12/01 01:46:34;;;;;;;17.85;11.80;;;6.90;63.70;;;;;;5017800;28;20042;-80
2021/12/01 01:49:24;;;;;;;16.42;11.60;;;6.90;63.80;;;;;;5015942;28;20398;-80
2021/12/01 01:51:50;;;;;;;;;;;6.90;63.60;;;;;;5016708;28;20030;-79
2021/12/01 01:54:17;;;;;;;16.98;12.07;;;6.80;63.50;;;;;;5023332;28;19918;-79
2021/12/01 01:56:43;;;;;;;16.80;10.55;;;6.60;63.20;;;;;;5015281;28;20788;-78
2021/12/01 01:59:09;;;;;;;18.85;11.85;;;6.60;63.90;;;;;;5015643;28;20512;-77
2021/12/01 02:01:44;;;;;;;14.70;9.90;;;6.50;64.10;;;;;;5016917;28;20038;-77
2021/12/01 02:04:15;;;;;;;15.30;11.10;;;6.40;64.30;;;;;;5019442;28;20474;-77
2021/12/01 02:06:43;;;;;;;17.67;10.90;;;6.40;64.80;;;;;;5020419;28;20053;-80
2021/12/01 02:09:09;;;;;;;18.85;11.23;;;6.30;64.70;;;;;;5020464;28;20042;-79
2021/12/01 02:11:35;;;;;;;13.85;11.52;;;6.40;65.10;;;;;;5020715;28;20037;-79
2021/12/01 02:14:01;;;;;;;17.90;11.65;;;6.40;65.10;;;;;;5038566;28;20076;-79
2021/12/01 02:16:27;;;;;;;17.10;12.55;;;6.50;65.10;;;;;;5037158;28;20036;-79
2021/12/01 02:18:54;;;;;;;23.30;12.80;;;6.50;64.70;;;;;;5035283;28;20041;-79
2021/12/01 02:21:30;;;;;;;16.83;12.00;;;6.50;64.60;;;;;;5034664;28;20092;-79
2021/12/01 02:23:58;;;;;;;19.05;12.25;;;6.50;64.70;;;;;;5035843;28;20133;-79
2021/12/01 02:26:25;;;;;;;17.77;12.18;;;6.50;64.60;;;;;;5035255;28;20033;-79
2021/12/01 02:28:53;;;;;;;16.20;12.02;;;6.50;64.70;;;;;;5034747;28;20112;-79
2021/12/01 02:31:38;;;;;;;19.45;12.10;;;6.40;64.70;;;;;;5034783;28;20033;-80
2021/12/01 02:34:07;;;;;;;20.98;12.45;;;6.50;64.80;;;;;;5038959;28;20129;-79
2021/12/01 02:36:33;;;;;;;21.92;12.27;;;6.50;64.90;;;;;;5036503;28;20037;-79
2021/12/01 02:39:00;;;;;;;16.27;11.63;;;6.50;64.90;;;;;;5034586;28;20041;-79
2021/12/01 02:41:28;;;;;;;15.77;11.10;;;6.50;65.10;;;;;;5036458;28;20034;-79
2021/12/01 02:43:55;;;;;;;17.33;11.57;;;6.50;64.80;;;;;;5041344;28;20068;-80
2021/12/01 02:46:21;;;;;;;15.07;10.73;;;6.60;64.60;;;;;;5038337;28;20121;-79
2021/12/01 02:48:47;;;;;;;18.52;11.57;;;6.60;64.60;;;;;;5017481;28;20048;-79
2021/12/01 02:51:13;;;;;;;17.67;11.38;;;6.70;64.80;;;;;;5032675;28;20370;-79
2021/12/01 02:53:40;;;;;;;18.73;11.63;;;6.70;64.90;;;;;;5021234;28;20124;-79
2021/12/01 02:56:07;;;;;;;18.20;11.75;;;6.70;64.80;;;;;;5031323;28;20041;-78
2021/12/01 02:58:40;;;;;;;17.23;11.80;;;6.80;65.00;;;;;;5033913;28;20052;-78
2021/12/01 03:01:09;;;;;;;17.17;11.45;;;6.80;64.90;;;;;;5033199;28;20056;-78
2021/12/01 03:03:35;;;;;;;17.60;12.57;;;6.80;65.00;;;;;;5043751;28;20045;-78
2021/12/01 03:06:01;;;;;;;18.55;12.27;;;6.80;65.10;;;;;;5034345;28;20121;-79
2021/12/01 03:08:28;;;;;;;18.20;12.73;;;6.80;64.80;;;;;;5034018;28;20466;-81
2021/12/01 03:10:54;;;;;;;18.90;12.13;;;6.90;64.70;;;;;;5034802;28;20037;-81
2021/12/01 03:13:22;;;;;;;24.55;13.65;;;6.80;64.80;;;;;;5026840;28;20107;-81
2021/12/01 03:15:48;;;;;;;18.50;12.55;;;6.80;65.00;;;;;;5013996;28;20117;-80
2021/12/01 03:18:15;;;;;;;18.30;13.25;;;6.80;65.10;;;;;;5015225;28;20162;-81
2021/12/01 03:20:41;;;;;;;20.92;13.35;;;6.80;65.10;;;;;;5011992;28;20041;-80
2021/12/01 03:23:08;;;;;;;22.75;13.88;;;6.70;65.00;;;;;;5013718;28;20080;-82
2021/12/01 03:25:34;;;;;;;23.10;13.32;;;6.70;65.00;;;;;;5017180;28;20188;-82
2021/12/01 03:28:01;;;;;;;18.02;13.10;;;6.70;65.20;;;;;;5005782;28;20174;-81
2021/12/01 03:30:27;;;;;;;19.55;12.52;;;6.70;65.20;;;;;;5017205;28;20041;-81
2021/12/01 03:32:53;;;;;;;17.00;13.07;;;6.60;65.20;;;;;;4999005;28;20406;-81
2021/12/01 03:35:19;;;;;;;17.83;12.70;;;6.60;65.30;;;;;;5014006;28;20140;-81
2021/12/01 03:37:46;;;;;;;18.63;12.95;;;6.60;65.20;;;;;;5014214;28;20494;-81
2021/12/01 03:40:13;;;;;;;17.52;11.93;;;6.60;65.40;;;;;;5012209;28;20486;-82
2021/12/01 03:42:40;;;;;;;21.27;13.75;;;6.50;65.60;;;;;;5018670;28;20065;-83
2021/12/01 03:45:07;;;;;;;23.27;11.07;;;6.50;65.70;;;;;;5031863;28;20095;-82
2021/12/01 03:47:33;;;;;;;15.55;10.80;;;6.40;65.60;;;;;;5013626;28;20029;-82
2021/12/01 03:50:00;;;;;;;17.98;12.10;;;6.40;65.80;;;;;;5017414;28;20042;-82
2021/12/01 03:52:25;;;;;;;16.58;12.15;;;6.40;65.90;;;;;;5018631;28;20133;-81
2021/12/01 03:54:52;;;;;;;19.63;12.82;;;6.40;66.40;;;;;;5013673;28;20454;-81
2021/12/01 03:57:18;;;;;;;18.30;12.40;;;6.40;66.70;;;;;;5016478;28;20113;-81
2021/12/01 03:59:44;;;;;;;18.52;13.50;;;6.50;66.60;;;;;;4999299;28;20124;-81
2021/12/01 04:02:10;;;;;;;16.80;12.25;;;6.50;66.30;;;;;;5013936;28;20037;-80
2021/12/01 04:04:36;;;;;;;18.48;13.60;;;6.60;66.20;;;;;;5013989;28;20081;-80
2021/12/01 04:07:02;;;;;;;17.27;11.10;;;6.60;66.20;;;;;;5013385;28;20034;-81
2021/12/01 04:09:29;;;;;;;19.00;11.95;;;6.60;66.20;;;;;;5012958;28;20038;-80
2021/12/01 04:11:55;;;;;;;18.48;12.65;;;6.60;66.20;;;;;;4995839;28;20046;-80
2021/12/01 04:14:21;;;;;;;17.55;12.35;;;6.60;66.50;;;;;;5013691;28;20179;-81
2021/12/01 04:16:47;;;;;;;16.73;11.18;;;6.60;67.10;;;;;;5032663;28;20087;-80
2021/12/01 04:19:13;;;;;;;17.15;12.23;;;6.70;66.70;;;;;;5015521;28;20484;-80
2021/12/01 04:21:39;;;;;;;16.38;11.73;;;6.70;66.70;;;;;;5032992;28;20516;-80
2021/12/01 04:24:06;;;;;;;17.73;12.27;;;6.70;66.60;;;;;;5032542;28;20379;-80
2021/12/01 04:26:33;;;;;;;16.17;11.50;;;6.70;66.80;;;;;;5032178;28;20068;-79
2021/12/01 04:28:59;;;;;;;16.25;11.52;;;6.60;66.80;;;;;;5021114;28;20362;-80
2021/12/01 04:31:26;;;;;;;17.48;11.95;;;6.70;67.10;;;;;;5032944;28;20049;-80
2021/12/01 04:33:52;;;;;;;15.32;11.57;;;6.70;66.90;;;;;;5022869;28;20042;-80
2021/12/01 04:36:18;;;;;;;16.60;11.43;;;6.70;66.80;;;;;;5032537;28;20423;-80
2021/12/01 04:38:45;;;;;;;15.25;11.13;;;6.70;66.80;;;;;;5032093;28;20139;-80
2021/12/01 04:41:13;;;;;;;16.10;11.18;;;6.70;67.00;;;;;;5017931;28;20044;-80
2021/12/01 04:43:39;;;;;;;16.30;11.65;;;6.70;67.00;;;;;;5033163;28;20517;-80
2021/12/01 04:46:06;;;;;;;17.00;11.70;;;6.70;67.00;;;;;;5032078;28;20030;-80
2021/12/01 04:48:32;;;;;;;17.20;10.80;;;6.70;67.10;;;;;;5032642;28;20038;-80
2021/12/01 04:50:59;;;;;;;16.85;11.05;;;6.80;67.00;;;;;;5039343;28;20124;-80
2021/12/01 04:53:26;;;;;;;14.77;10.60;;;6.70;66.30;;;;;;5035081;28;20116;-81
2021/12/01 04:55:53;;;;;;;14.07;11.15;;;6.60;66.20;;;;;;5041478;28;20038;-81
2021/12/01 04:58:20;;;;;;;13.50;10.40;;;6.50;66.50;;;;;;5038612;28;20068;-81
2021/12/01 05:00:46;;;;;;;15.70;11.07;;;6.40;66.60;;;;;;5033278;28;20037;-83
2021/12/01 05:03:12;;;;;;;14.77;10.90;;;6.40;66.70;;;;;;5045470;28;20053;-85
2021/12/01 05:05:38;;;;;;;14.45;11.10;;;6.40;66.80;;;;;;5032718;28;20421;-86
2021/12/01 05:08:04;;;;;;;15.93;11.57;;;6.40;66.80;;;;;;5042617;28;20033;-86
2021/12/01 05:10:30;;;;;;;17.45;11.82;;;6.40;66.70;;;;;;5037061;28;20056;-85
2021/12/01 05:12:56;;;;;;;17.38;11.70;;;6.30;66.80;;;;;;5034017;28;20537;-85
2021/12/01 05:15:21;;;;;;;16.33;11.35;;;6.30;66.70;;;;;;5041429;28;20033;-85
2021/12/01 05:17:49;;;;;;;17.55;11.63;;;6.30;66.80;;;;;;5027329;28;20042;-86
2021/12/01 05:20:15;;;;;;;15.38;12.02;;;6.30;67.10;;;;;;5034480;28;20089;-84
2021/12/01 05:22:42;;;;;;;17.65;11.93;;;6.30;67.50;;;;;;5035824;28;20029;-88
2021/12/01 05:25:09;;;;;;;16.63;11.27;;;6.30;67.60;;;;;;5019294;28;20029;-88
2021/12/01 05:27:35;;;;;;;16.90;11.35;;;6.40;67.30;;;;;;5036606;28;20482;-88
2021/12/01 05:30:00;;;;;;;17.27;11.23;;;6.40;67.30;;;;;;5044415;28;20048;-87
2021/12/01 05:32:26;;;;;;;19.95;13.48;;;6.40;67.30;;;;;;5048782;28;20482;-88
2021/12/01 05:34:52;;;;;;;16.60;11.85;;;6.30;67.20;;;;;;5022140;28;20042;-87
2021/12/01 05:37:18;;;;;;;17.55;12.50;;;6.20;67.40;;;;;;5040121;28;20025;-87
2021/12/01 05:39:45;;;;;;;17.85;12.38;;;6.20;67.90;;;;;;5040943;28;20037;-81
2021/12/01 05:42:12;;;;;;;15.48;11.73;;;6.30;68.10;;;;;;5035413;28;20454;-81
2021/12/01 05:44:39;;;;;;;16.77;12.13;;;6.30;67.60;;;;;;5049067;28;20091;-80
2021/12/01 05:47:05;;;;;;;15.52;11.32;;;6.30;67.20;;;;;;5035107;28;20022;-79
2021/12/01 05:49:31;;;;;;;17.73;12.05;;;6.40;67.30;;;;;;5043792;28;20382;-80
2021/12/01 05:51:57;;;;;;;16.25;11.68;;;6.40;67.40;;;;;;5042100;28;20033;-79
2021/12/01 05:54:23;;;;;;;15.98;10.93;;;6.40;67.70;;;;;;5035305;28;20049;-80
2021/12/01 05:56:49;;;;;;;19.38;12.43;;;6.40;67.60;;;;;;5039349;28;20037;-80
2021/12/01 05:59:14;;;;;;;17.50;11.32;;;6.40;67.60;;;;;;5036713;28;20039;-80
2021/12/01 06:01:40;;;;;;;16.13;11.23;;;6.40;67.40;;;;;;5035878;28;20045;-80
2021/12/01 06:04:06;;;;;;;14.18;10.65;;;6.50;67.60;;;;;;5035810;28;20044;-80
2021/12/01 06:06:32;;;;;;;16.77;11.85;;;6.40;67.40;;;;;;5035247;28;20164;-79
2021/12/01 06:08:57;;;;;;;16.60;11.50;;;6.40;67.50;;;;;;5033256;28;20047;-80
2021/12/01 06:11:24;;;;;;;16.45;10.30;;;6.40;67.60;;;;;;5034459;28;20025;-80
2021/12/01 06:13:52;;;;;;;17.63;12.25;;;6.40;67.80;;;;;;5024330;28;20044;-80
2021/12/01 06:16:22;;;;;;;15.07;11.45;;;6.40;67.90;;;;;;5034916;28;20073;-86
2021/12/01 06:18:48;;;;;;;14.95;10.85;;;6.40;67.90;;;;;;5040496;28;20040;-80
2021/12/01 06:21:14;;;;;;;19.77;11.07;;;6.40;68.10;;;;;;5036233;28;20041;-79
2021/12/01 06:23:40;;;;;;;17.63;12.82;;;6.40;68.20;;;;;;5034663;28;20453;-79
2021/12/01 06:26:06;;;;;;;16.05;11.50;;;6.50;68.80;;;;;;5034182;28;20060;-81
2021/12/01 06:28:31;;;;;;;18.63;11.73;;;6.40;68.00;;;;;;5034175;28;20030;-81
2021/12/01 06:30:58;;;;;;;18.48;12.50;;;6.40;67.90;;;;;;5020905;28;20046;-80
2021/12/01 06:33:24;;;;;;;16.13;11.80;;;6.30;67.90;;;;;;5033839;28;20038;-81
2021/12/01 06:35:51;;;;;;;19.10;12.63;;;6.30;68.20;;;;;;5033460;28;20443;-81
2021/12/01 06:38:19;;;;;;;16.50;11.68;;;6.30;68.40;;;;;;5015840;28;20037;-81
2021/12/01 06:40:46;;;;;;;16.52;11.50;;;6.30;68.30;;;;;;5014809;28;20084;-82
2021/12/01 06:43:12;;;;;;;15.32;10.90;;;6.40;68.30;;;;;;5030005;28;20049;-81
2021/12/01 06:45:38;;;;;;;19.05;11.85;;;6.30;68.30;;;;;;5029440;28;20037;-82
2021/12/01 06:48:04;;;;;;;16.92;12.93;;;6.30;68.70;;;;;;5034365;28;20421;-83
2021/12/01 06:50:30;;;;;;;15.10;10.93;;;6.30;68.20;;;;;;5035163;28;20037;-84
2021/12/01 06:52:56;;;;;;;17.23;11.65;;;6.30;68.10;;;;;;5035425;28;20127;-84
2021/12/01 06:55:23;;;;;;;16.95;10.93;;;6.20;68.10;;;;;;5028494;28;20037;-82
2021/12/01 06:57:49;;;;;;;14.48;9.90;;;6.20;68.30;;;;;;5033230;28;20478;-82
2021/12/01 07:00:17;;;;;;;13.73;10.18;;;6.30;68.10;;;;;;5017083;28;20041;-83
2021/12/01 07:02:43;;;;;;;15.27;10.35;;;6.20;67.20;;;;;;5033667;28;20153;-83
2021/12/01 07:05:09;;;;;;;13.98;10.30;;;5.90;67.00;;;;;;5033407;28;20046;-83
2021/12/01 07:07:36;;;;;;;13.00;8.50;;;5.60;67.10;;;;;;5034394;28;20034;-83
2021/12/01 07:10:05;;;;;;;16.35;11.10;;;5.70;67.80;;;;;;5016412;28;20430;-83
2021/12/01 07:12:31;;;;;;;12.43;9.23;;;5.80;67.80;;;;;;5034475;28;20091;-82
2021/12/01 07:14:56;;;;;;;13.02;9.23;;;5.70;68.30;;;;;;5016564;28;20068;-82
2021/12/01 07:17:22;;;;;;;12.43;9.63;;;5.70;68.50;;;;;;5034404;28;20037;-83
2021/12/01 07:19:48;;;;;;;15.27;9.73;;;5.60;69.50;;;;;;5034549;28;20030;-81
2021/12/01 07:22:15;;;;;;;16.40;9.82;;;5.70;68.60;;;;;;5022756;28;20080;-83
2021/12/01 07:24:42;;;;;;;11.30;8.10;;;5.70;68.20;;;;;;5034382;28;20045;-84
2021/12/01 07:27:07;;;;;;;12.10;8.32;;;5.80;68.00;;;;;;5039976;28;20029;-85
2021/12/01 07:29:35;;;;;;;14.43;9.15;;;5.90;67.80;;;;;;5034360;28;20113;-85
2021/12/01 07:32:01;;;;;;;22.20;11.25;;;6.00;67.70;;;;;;5032937;28;20092;-87
2021/12/01 07:34:27;;;;;;;11.77;8.75;;;6.00;67.20;;;;;;5035450;28;20056;-83
2021/12/01 07:36:53;;;;;;;19.73;11.27;;;5.90;67.70;;;;;;5033340;28;20025;-85
2021/12/01 07:39:19;;;;;;;15.77;9.57;;;5.90;67.90;;;;;;5045664;28;20086;-80
2021/12/01 07:41:46;;;;;;;15.75;9.82;;;5.80;68.10;;;;;;5032512;28;20048;-79
2021/12/01 07:44:12;;;;;;;11.50;9.18;;;5.90;68.20;;;;;;5032456;28;20057;-80
2021/12/01 07:46:37;;;;;;;18.95;12.65;;;5.90;68.10;;;;;;5031399;28;20135;-81
2021/12/01 07:49:04;;;;;;;15.85;9.40;;;5.70;67.60;;;;;;5015076;28;20048;-80
2021/12/01 07:51:30;;;;;;;16.77;9.05;;;5.60;68.50;;;;;;5032665;28;20041;-80
2021/12/01 07:53:56;;;;;;;14.38;10.60;;;5.80;68.30;;;;;;5015601;28;20063;-80
2021/12/01 07:56:25;;;;;;;14.88;9.15;;;5.90;68.00;;;;;;5033228;28;20565;-80
2021/12/01 07:58:50;;;;;;;11.75;7.85;;;5.80;67.40;;;;;;5033179;28;20120;-82
2021/12/01 08:01:16;;;;;;;13.48;8.65;;;5.80;67.30;;;;;;5032962;28;20456;-82
2021/12/01 08:03:42;;;;;;;11.25;8.02;;;5.90;67.40;;;;;;5033473;28;20116;-82
2021/12/01 08:06:08;;;;;;;10.77;7.55;;;6.10;67.40;;;;;;5016252;28;20034;-82
2021/12/01 08:08:34;;;;;;;12.48;8.02;;;6.20;67.50;;;;;;5033968;28;20034;-82
2021/12/01 08:10:59;;;;;;;10.65;7.65;;;6.30;67.40;;;;;;5015821;28;20485;-82
2021/12/01 08:13:25;;;;;;;12.88;8.32;;;6.50;67.10;;;;;;5033054;28;20458;-82
2021/12/01 08:15:51;;;;;;;8.57;6.43;;;6.60;67.10;;;;;;5033064;28;20501;-81
2021/12/01 08:18:18;;;;;;;8.38;6.72;;;6.70;65.00;;;;;;5038667;28;20055;-81
2021/12/01 08:20:44;;;;;;;10.13;6.85;;;6.70;65.30;;;;;;5055926;28;20052;-82
2021/12/01 08:23:10;;;;;;;9.13;6.63;;;6.80;65.40;;;;;;5053413;28;20041;-82
2021/12/01 08:25:36;;;;;;;12.60;7.68;;;7.00;65.20;;;;;;5037254;28;20037;-82
2021/12/01 08:28:03;;;;;;;8.60;5.88;;;7.10;63.60;;;;;;5033237;28;20041;-81
2021/12/01 08:30:29;;;;;;;13.52;8.88;;;7.10;63.60;;;;;;5032658;28;20129;-80
2021/12/01 08:32:56;;;;;;;11.02;7.63;;;7.10;61.40;;;;;;5014923;28;20505;-81
2021/12/01 08:35:21;;;;;;;7.00;5.53;;;6.90;61.80;;;;;;5033274;28;20056;-81
2021/12/01 08:37:47;;;;;;;12.25;8.30;;;7.00;62.60;;;;;;5015394;28;20037;-81
2021/12/01 08:40:15;;;;;;;9.15;5.65;;;7.10;61.90;;;;;;5015046;28;20040;-81
2021/12/01 08:42:41;;;;;;;6.53;5.30;;;7.10;61.80;;;;;;5032033;28;20057;-82
2021/12/01 08:45:09;;;;;;;7.18;5.75;;;7.30;62.60;;;;;;5031518;28;20030;-83
2021/12/01 08:47:35;;;;;;;8.45;5.72;;;7.40;62.60;;;;;;5016173;28;20029;-82
2021/12/01 08:50:00;;;;;;;8.25;5.72;;;7.60;62.30;;;;;;5019143;28;20496;-81
2021/12/01 08:52:27;;;;;;;9.43;6.13;;;7.70;61.90;;;;;;5037129;28;20037;-80
2021/12/01 08:54:53;;;;;;;8.50;5.78;;;7.80;62.10;;;;;;5036111;28;20029;-79
2021/12/01 08:57:19;;;;;;;9.98;6.10;;;7.90;62.40;;;;;;5036520;28;20021;-80
2021/12/01 08:59:45;;;;;;;9.90;6.03;;;8.00;62.20;;;;;;5036696;28;20069;-79
2021/12/01 09:02:11;;;;;;;7.97;4.95;;;8.20;61.50;;;;;;5034973;28;20044;-80
2021/12/01 09:04:37;;;;;;;6.53;5.35;;;8.20;61.00;;;;;;5018881;28;20049;-80
2021/12/01 09:07:04;;;;;;;8.90;4.97;;;8.30;61.00;;;;;;5036822;28;20025;-80
2021/12/01 09:09:30;;;;;;;5.93;5.00;;;8.40;60.10;;;;;;5036750;28;20041;-80
2021/12/01 09:11:56;;;;;;;7.13;5.82;;;8.40;59.70;;;;;;5036815;28;20044;-80
2021/12/01 09:14:26;;;;;;;9.75;6.60;;;8.40;59.20;;;;;;5036469;28;20398;-80
2021/12/01 09:16:53;;;;;;;;;;;8.20;58.00;;;;;;5036685;28;20040;-81
2021/12/01 09:19:19;;;;;;;6.82;4.43;;;7.90;58.30;;;;;;5018478;28;19904;-80
2021/12/01 09:21:46;;;;;;;12.10;5.22;;;7.80;59.30;;;;;;5034946;28;20041;-81
2021/12/01 09:24:12;;;;;;;5.95;4.22;;;7.80;59.60;;;;;;5034259;28;20025;-80
2021/12/01 09:26:37;;;;;;;8.07;6.07;;;7.90;60.30;;;;;;5017241;28;20048;-82
2021/12/01 09:29:04;;;;;;;10.60;5.78;;;8.00;60.10;;;;;;5034904;28;20018;-82
2021/12/01 09:31:30;;;;;;;9.32;4.80;;;7.90;59.70;;;;;;5034893;28;20045;-82
2021/12/01 09:33:56;;;;;;;6.93;5.05;;;7.90;60.50;;;;;;5035238;28;20037;-81
2021/12/01 09:36:22;;;;;;;11.10;6.47;;;7.90;60.20;;;;;;5034718;28;20040;-82
2021/12/01 09:38:48;;;;;;;10.88;6.10;;;7.80;60.80;;;;;;5032223;28;20034;-82
2021/12/01 09:41:14;;;;;;;8.88;6.15;;;7.60;61.60;;;;;;5035569;28;20052;-82
2021/12/01 09:43:41;;;;;;;11.32;6.45;;;7.70;62.00;;;;;;5036592;28;20480;-82
2021/12/01 09:46:09;;;;;;;9.20;5.15;;;7.70;62.20;;;;;;5036120;28;20037;-82
2021/12/01 09:48:40;;;;;;;7.30;5.10;;;7.80;62.50;;;;;;5018584;28;20026;-82
2021/12/01 09:51:07;;;;;;;5.78;4.63;;;8.00;62.30;;;;;;5036165;28;20033;-82
2021/12/01 09:53:33;;;;;;;6.38;4.53;;;8.30;62.20;;;;;;5018446;28;20091;-83
2021/12/01 09:55:59;;;;;;;7.95;6.30;;;8.50;62.00;;;;;;5035214;28;20044;-77
2021/12/01 09:58:31;;;;;;;16.60;8.10;;;8.50;60.70;;;;;;5035898;28;20046;-77
2021/12/01 10:01:00;;;;;;;14.10;6.75;;;8.10;61.90;;;;;;5034949;28;20069;-77
2021/12/01 10:03:26;;;;;;;10.15;5.75;;;8.20;62.40;;;;;;5035331;28;20120;-77
2021/12/01 10:06:04;;;;;;;7.78;4.82;;;8.10;62.80;;;;;;5035367;28;20036;-77
2021/12/01 10:08:36;;;;;;;8.25;4.85;;;8.30;62.90;;;;;;5035547;28;20033;-77
2021/12/01 10:11:13;;;;;;;12.85;8.13;;;8.60;62.60;;;;;;5035734;28;20494;-77
2021/12/01 10:13:42;;;;;;;8.93;6.15;;;8.50;61.70;;;;;;5034796;28;20040;-77
2021/12/01 10:16:12;;;;;;;8.43;6.10;;;8.30;62.80;;;;;;5035702;28;20045;-77
2021/12/01 10:18:46;;;;;;;13.65;7.85;;;8.70;62.90;;;;;;5035305;28;20033;-77
2021/12/01 10:21:39;;;;;;;9.23;6.28;;;8.50;61.60;;;;;;5035713;28;20037;-77
2021/12/01 10:24:21;;;;;;;8.25;5.90;;;8.60;62.30;;;;;;5034173;28;20041;-77
2021/12/01 10:26:50;;;;;;;7.47;5.60;;;8.60;63.00;;;;;;5023805;28;20462;-77
2021/12/01 10:29:22;;;;;;;7.35;5.72;;;9.00;62.70;;;;;;5028951;28;20084;-77
2021/12/01 10:31:54;;;;;;;9.70;5.85;;;9.40;62.50;;;;;;5035650;28;20033;-78
2021/12/01 10:34:35;;;;;;;9.93;6.97;;;9.80;62.00;;;;;;5031193;28;20064;-77
2021/12/01 10:37:12;;;;;;;7.93;6.28;;;10.20;59.40;;;;;;5034135;28;20136;-78
2021/12/01 10:39:41;;;;;;;8.60;6.03;;;10.40;58.50;;;;;;5034102;28;20168;-77
2021/12/01 10:42:14;;;;;;;8.18;6.13;;;10.60;59.70;;;;;;5034782;28;20048;-78
2021/12/01 10:45:01;;;;;;;10.50;6.85;;;10.90;59.00;;;;;;5034190;28;20068;-78
2021/12/01 10:47:40;;;;;;;8.80;7.10;;;11.10;58.10;;;;;;5034108;28;20037;-78
2021/12/01 10:50:06;;;;;;;9.20;6.55;;;11.30;57.40;;;;;;5034872;28;20086;-78
2021/12/01 10:52:45;;;;;;;7.97;6.43;;;11.40;57.50;;;;;;5016767;28;20037;-77
2021/12/01 10:55:13;;;;;;;11.57;6.75;;;11.70;57.50;;;;;;5035156;28;20060;-77
2021/12/01 10:57:42;;;;;;;7.63;5.88;;;12.00;56.70;;;;;;5032636;28;20041;-78
2021/12/01 11:00:38;;;;;;;10.05;6.32;;;12.10;55.70;;;;;;5033480;28;20033;-78
2021/12/01 11:03:06;;;;;;;11.82;6.00;;;12.20;55.60;;;;;;5031566;28;20394;-77
2021/12/01 11:05:41;;;;;;;9.35;7.00;;;12.50;55.40;;;;;;5032936;28;20025;-78
2021/12/01 11:08:11;;;;;;;9.20;6.53;;;12.70;54.60;;;;;;5034329;28;20160;-77
2021/12/01 11:10:37;;;;;;;8.00;6.32;;;12.80;52.00;;;;;;5034092;28;20099;-77
2021/12/01 11:13:04;;;;;;;8.20;6.10;;;12.90;53.80;;;;;;5033744;28;20477;-77
2021/12/01 11:15:35;;;;;;;10.60;7.38;;;13.00;53.80;;;;;;5016044;28;20043;-77
2021/12/01 11:18:02;;;;;;;11.05;6.70;;;13.20;51.40;;;;;;5015772;28;20057;-78
2021/12/01 11:20:50;;;;;;;8.82;7.00;;;13.30;53.40;;;;;;5034445;28;20116;-78
2021/12/01 11:23:33;;;;;;;8.82;6.95;;;13.40;50.60;;;;;;5016753;28;20053;-78
2021/12/01 11:26:05;;;;;;;9.82;6.75;;;13.40;52.70;;;;;;5034484;28;20030;-77
2021/12/01 11:28:39;;;;;;;9.25;6.20;;;13.60;52.70;;;;;;5034558;28;20034;-78
2021/12/01 11:31:13;;;;;;;10.65;7.22;;;13.90;52.80;;;;;;5033948;28;20540;-78
2021/12/01 11:33:43;;;;;;;10.32;7.13;;;14.60;51.70;;;;;;5016378;28;20045;-79
2021/12/01 11:36:15;;;;;;;10.73;6.80;;;15.60;49.70;;;;;;5034040;28;20169;-78
2021/12/01 11:38:42;;;;;;;8.30;7.15;;;16.70;47.60;;;;;;5034417;28;20046;-79
2021/12/01 11:41:09;;;;;;;8.48;6.70;;;17.70;42.30;;;;;;5034071;28;20034;-79
2021/12/01 11:43:37;;;;;;;10.38;6.63;;;18.50;42.00;;;;;;5033568;28;20474;-80
2021/12/01 11:46:03;;;;;;;8.25;6.68;;;19.30;40.60;;;;;;5033508;28;20025;-79
2021/12/01 11:48:39;;;;;;;8.57;6.50;;;19.90;37.70;;;;;;5032879;28;20044;-80
2021/12/01 11:51:22;;;;;;;7.90;6.78;;;20.60;37.20;;;;;;5014899;28;20048;-80
2021/12/01 11:53:58;;;;;;;7.32;6.50;;;21.10;35.20;;;;;;5033573;28;20065;-80
2021/12/01 11:56:32;;;;;;;8.65;6.70;;;21.40;34.30;;;;;;5015642;28;20038;-80
2021/12/01 11:59:00;;;;;;;8.13;7.00;;;21.70;33.60;;;;;;5033328;28;20080;-80
2021/12/01 12:01:26;;;;;;;8.80;6.47;;;21.70;33.20;;;;;;5015531;28;20375;-80
2021/12/01 12:04:01;;;;;;;10.48;7.38;;;22.00;33.10;;;;;;5032141;28;20048;-80
2021/12/01 12:06:31;;;;;;;9.10;7.10;;;22.20;32.20;;;;;;5033557;28;20040;-80
2021/12/01 12:09:07;;;;;;;;;;;22.30;31.80;;;;;;5032614;28;20033;-80
2021/12/01 12:11:38;;;;;;;8.98;7.30;;;22.30;32.20;;;;;;5048649;28;19909;-80
2021/12/01 12:14:09;;;;;;;8.30;6.60;;;22.30;32.10;;;;;;5053132;28;20049;-80
2021/12/01 12:16:37;;;;;;;8.32;6.82;;;22.10;31.90;;;;;;5046135;28;20462;-80
2021/12/01 12:19:03;;;;;;;7.43;6.72;;;21.60;32.60;;;;;;5035807;28;20504;-80
2021/12/01 12:21:50;;;;;;;7.50;6.63;;;20.90;33.20;;;;;;5052558;28;20041;-80
2021/12/01 12:24:19;;;;;;;7.82;6.93;;;20.10;34.30;;;;;;5020327;28;20025;-79
2021/12/01 12:26:51;;;;;;;11.20;7.35;;;19.20;35.60;;;;;;5033381;28;20450;-79
2021/12/01 12:29:23;;;;;;;9.85;8.02;;;18.70;36.70;;;;;;5032382;28;20028;-79
2021/12/01 12:31:52;;;;;;;8.63;7.72;;;18.30;37.50;;;;;;5032567;28;20088;-80
2021/12/01 12:34:22;;;;;;;8.35;7.55;;;18.10;37.90;;;;;;5033614;28;20091;-81
2021/12/01 12:36:58;;;;;;;9.50;8.48;;;17.50;37.80;;;;;;5032713;28;20045;-81
2021/12/01 12:39:44;;;;;;;10.68;8.00;;;17.00;38.90;;;;;;5034162;28;20564;-81
2021/12/01 12:42:10;;;;;;;11.02;9.48;;;16.50;40.00;;;;;;5032611;28;20425;-81
2021/12/01 12:44:48;;;;;;;11.68;9.63;;;16.20;40.90;;;;;;5015213;28;20378;-80
2021/12/01 12:47:22;;;;;;;12.18;9.32;;;15.90;41.40;;;;;;5050218;28;20044;-79
2021/12/01 12:49:56;;;;;;;10.75;9.25;;;15.70;41.80;;;;;;5050929;28;20358;-81
2021/12/01 12:52:24;;;;;;;8.73;7.82;;;15.50;42.50;;;;;;5013793;28;20026;-81